sensor_id;sensor_type;location;lat;lon;timestamp;pressure;altitude;pressure_sealevel;temperature;humidity
41573;BME280;27286;47.870;19.006;2022-08-19T19:24:30;98993.47;;;28.17;44.94
41573;BME280;27286;47.870;19.006;2022-08-19T19:26:59;98999.75;;;27.80;44.77
41573;BME280;27286;47.870;19.006;2022-08-19T19:29:26;98999.78;;;27.42;48.62
41573;BME280;27286;47.870;19.006;2022-08-19T19:34:50;98983.28;;;26.93;52.31
41573;BME280;27286;47.870;19.006;2022-08-19T19:37:16;98971.00;;;26.84;52.52
41573;BME280;27286;47.870;19.006;2022-08-19T19:39:41;98955.44;;;26.87;53.96
41573;BME280;27286;47.870;19.006;2022-08-19T19:42:09;98945.31;;;26.83;55.18
41573;BME280;27286;47.870;19.006;2022-08-19T19:44:39;98932.31;;;26.80;56.40
41573;BME280;27286;47.870;19.006;2022-08-19T19:47:05;98923.00;;;26.76;56.33
41573;BME280;27286;47.870;19.006;2022-08-19T19:49:31;98916.69;;;26.68;56.19
41573;BME280;27286;47.870;19.006;2022-08-19T19:51:57;98902.81;;;26.50;56.75
41573;BME280;27286;47.870;19.006;2022-08-19T19:54:22;98907.03;;;26.45;57.68
41573;BME280;27286;47.870;19.006;2022-08-19T19:56:48;98909.75;;;26.36;57.38
41573;BME280;27286;47.870;19.006;2022-08-19T19:59:15;98886.78;;;26.27;57.64
41573;BME280;27286;47.870;19.006;2022-08-19T20:01:41;98892.41;;;26.32;57.55
41573;BME280;27286;47.870;19.006;2022-08-19T20:04:13;98885.41;;;26.31;57.88
41573;BME280;27286;47.870;19.006;2022-08-19T20:06:38;98893.59;;;26.30;57.59
41573;BME280;27286;47.870;19.006;2022-08-19T20:09:04;98900.78;;;26.29;56.81
41573;BME280;27286;47.870;19.006;2022-08-19T20:11:39;98906.09;;;26.29;57.63
41573;BME280;27286;47.870;19.006;2022-08-19T20:14:09;98917.31;;;26.25;57.66
41573;BME280;27286;47.870;19.006;2022-08-19T20:16:36;98917.66;;;26.22;57.56
41573;BME280;27286;47.870;19.006;2022-08-19T20:19:06;98906.50;;;26.18;57.79
41573;BME280;27286;47.870;19.006;2022-08-19T20:21:32;98895.06;;;26.09;58.42
41573;BME280;27286;47.870;19.006;2022-08-19T20:24:02;98890.72;;;26.08;59.76
41573;BME280;27286;47.870;19.006;2022-08-19T20:26:28;98904.97;;;25.93;59.75
41573;BME280;27286;47.870;19.006;2022-08-19T20:28:54;98879.91;;;25.71;60.94
41573;BME280;27286;47.870;19.006;2022-08-19T20:31:20;98846.41;;;25.68;61.55
41573;BME280;27286;47.870;19.006;2022-08-19T20:33:48;98855.56;;;25.74;61.31
41573;BME280;27286;47.870;19.006;2022-08-19T20:36:13;98856.06;;;25.69;61.20
41573;BME280;27286;47.870;19.006;2022-08-19T20:38:39;98845.06;;;25.64;61.71
41573;BME280;27286;47.870;19.006;2022-08-19T20:41:05;98853.59;;;25.60;61.47
41573;BME280;27286;47.870;19.006;2022-08-19T20:43:31;98849.13;;;25.52;62.44
41573;BME280;27286;47.870;19.006;2022-08-19T20:45:58;98877.78;;;25.50;61.28
41573;BME280;27286;47.870;19.006;2022-08-19T20:53:38;99009.06;;;25.11;63.86
41573;BME280;27286;47.870;19.006;2022-08-19T20:56:04;99002.50;;;24.73;64.11
41573;BME280;27286;47.870;19.006;2022-08-19T20:58:30;99024.59;;;24.57;64.32
41573;BME280;27286;47.870;19.006;2022-08-19T21:00:58;99044.16;;;24.48;63.77
41573;BME280;27286;47.870;19.006;2022-08-19T21:03:27;99081.09;;;24.43;61.98
41573;BME280;27286;47.870;19.006;2022-08-19T21:05:54;99114.66;;;24.44;62.97
41573;BME280;27286;47.870;19.006;2022-08-19T21:08:21;99093.44;;;24.26;62.25
41573;BME280;27286;47.870;19.006;2022-08-19T21:10:48;99100.44;;;24.27;64.48
41573;BME280;27286;47.870;19.006;2022-08-19T21:13:14;99104.66;;;24.12;65.61
41573;BME280;27286;47.870;19.006;2022-08-19T21:15:40;99093.66;;;23.81;67.23
41573;BME280;27286;47.870;19.006;2022-08-19T21:18:11;99120.19;;;23.73;65.67
41573;BME280;27286;47.870;19.006;2022-08-19T21:20:38;99113.81;;;23.66;66.42
41573;BME280;27286;47.870;19.006;2022-08-19T21:23:05;99113.38;;;23.70;67.04
41573;BME280;27286;47.870;19.006;2022-08-19T21:25:30;99119.34;;;23.73;67.92
41573;BME280;27286;47.870;19.006;2022-08-19T21:27:56;99098.97;;;23.81;67.95
41573;BME280;27286;47.870;19.006;2022-08-19T21:30:22;99082.03;;;23.82;69.43
41573;BME280;27286;47.870;19.006;2022-08-19T21:40:33;99050.31;;;24.15;68.76
41573;BME280;27286;47.870;19.006;2022-08-19T21:42:59;99049.03;;;24.19;68.24
41573;BME280;27286;47.870;19.006;2022-08-19T21:45:26;99056.19;;;24.26;68.04
41573;BME280;27286;47.870;19.006;2022-08-19T21:47:54;99025.13;;;24.27;67.96
41573;BME280;27286;47.870;19.006;2022-08-19T21:50:22;99010.06;;;24.36;67.87
41573;BME280;27286;47.870;19.006;2022-08-19T21:52:48;98990.75;;;24.34;67.32
41573;BME280;27286;47.870;19.006;2022-08-19T21:55:14;98994.94;;;24.44;66.68
41573;BME280;27286;47.870;19.006;2022-08-19T21:57:40;98971.00;;;24.44;66.24
41573;BME280;27286;47.870;19.006;2022-08-19T22:00:12;98972.53;;;24.55;66.33
41573;BME280;27286;47.870;19.006;2022-08-19T22:02:39;98964.03;;;24.51;66.33
41573;BME280;27286;47.870;19.006;2022-08-19T22:05:05;98956.03;;;24.51;66.56
41573;BME280;27286;47.870;19.006;2022-08-19T22:07:31;98953.72;;;24.48;65.97
41573;BME280;27286;47.870;19.006;2022-08-19T22:09:56;98952.53;;;24.43;66.49
41573;BME280;27286;47.870;19.006;2022-08-19T22:12:28;98936.41;;;24.44;66.63
41573;BME280;27286;47.870;19.006;2022-08-19T22:14:55;98931.25;;;24.43;67.00
41573;BME280;27286;47.870;19.006;2022-08-19T22:17:21;98916.78;;;24.37;67.01
41573;BME280;27286;47.870;19.006;2022-08-19T22:19:47;98899.84;;;24.38;66.79
41573;BME280;27286;47.870;19.006;2022-08-19T22:22:20;98887.19;;;24.40;67.49
41573;BME280;27286;47.870;19.006;2022-08-19T22:24:46;98889.84;;;24.40;67.74
41573;BME280;27286;47.870;19.006;2022-08-19T22:27:11;98879.56;;;24.37;67.57
41573;BME280;27286;47.870;19.006;2022-08-19T22:29:37;98861.09;;;24.36;67.28
41573;BME280;27286;47.870;19.006;2022-08-19T22:32:02;98863.88;;;24.34;66.91
41573;BME280;27286;47.870;19.006;2022-08-19T22:34:28;98853.41;;;24.33;67.24
41573;BME280;27286;47.870;19.006;2022-08-19T22:36:54;98845.78;;;24.29;67.65
41573;BME280;27286;47.870;19.006;2022-08-19T22:39:19;98825.63;;;24.27;67.75
41573;BME280;27286;47.870;19.006;2022-08-19T22:41:44;98816.28;;;24.15;67.73
41573;BME280;27286;47.870;19.006;2022-08-19T22:44:10;98842.88;;;24.15;67.68
41573;BME280;27286;47.870;19.006;2022-08-19T22:46:36;98854.53;;;24.14;66.81
41573;BME280;27286;47.870;19.006;2022-08-19T22:49:01;98854.19;;;24.09;66.93
41573;BME280;27286;47.870;19.006;2022-08-19T22:51:27;98821.91;;;23.95;67.05
41573;BME280;27286;47.870;19.006;2022-08-19T22:54:10;98818.97;;;24.07;66.79
41573;BME280;27286;47.870;19.006;2022-08-19T22:56:36;98817.31;;;24.06;67.00
41573;BME280;27286;47.870;19.006;2022-08-19T22:59:01;98823.44;;;24.06;67.16
41573;BME280;27286;47.870;19.006;2022-08-19T23:01:28;98814.47;;;24.07;67.08
41573;BME280;27286;47.870;19.006;2022-08-19T23:03:54;98803.19;;;24.05;66.62
41573;BME280;27286;47.870;19.006;2022-08-19T23:06:20;98814.16;;;24.02;67.16
41573;BME280;27286;47.870;19.006;2022-08-19T23:08:46;98818.75;;;23.92;67.46
41573;BME280;27286;47.870;19.006;2022-08-19T23:11:12;98814.44;;;23.91;67.74
41573;BME280;27286;47.870;19.006;2022-08-19T23:13:39;98835.38;;;23.94;67.39
41573;BME280;27286;47.870;19.006;2022-08-19T23:16:05;98826.41;;;23.95;66.96
41573;BME280;27286;47.870;19.006;2022-08-19T23:18:31;98804.63;;;23.99;67.04
41573;BME280;27286;47.870;19.006;2022-08-19T23:20:58;98794.00;;;23.99;67.59
41573;BME280;27286;47.870;19.006;2022-08-19T23:23:24;98790.69;;;23.97;66.89
41573;BME280;27286;47.870;19.006;2022-08-19T23:25:55;98799.66;;;23.96;66.87
41573;BME280;27286;47.870;19.006;2022-08-19T23:28:21;98803.66;;;23.92;66.80
41573;BME280;27286;47.870;19.006;2022-08-19T23:31:05;98795.50;;;23.94;67.57
41573;BME280;27286;47.870;19.006;2022-08-19T23:33:37;98791.69;;;23.96;67.67
41573;BME280;27286;47.870;19.006;2022-08-19T23:36:12;98789.53;;;23.92;67.83
41573;BME280;27286;47.870;19.006;2022-08-19T23:38:40;98785.53;;;23.88;68.46
41573;BME280;27286;47.870;19.006;2022-08-19T23:41:07;98794.66;;;23.85;69.03
41573;BME280;27286;47.870;19.006;2022-08-19T23:43:33;98784.00;;;23.77;68.96
41573;BME280;27286;47.870;19.006;2022-08-19T23:46:01;98805.59;;;23.82;69.31
41573;BME280;27286;47.870;19.006;2022-08-19T23:48:28;98795.63;;;23.76;69.73
41573;BME280;27286;47.870;19.006;2022-08-19T23:50:55;98793.31;;;23.73;69.66
41573;BME280;27286;47.870;19.006;2022-08-19T23:53:21;98794.97;;;23.74;69.99
41573;BME280;27286;47.870;19.006;2022-08-19T23:55:47;98798.25;;;23.68;69.58
41573;BME280;27286;47.870;19.006;2022-08-19T23:58:14;98795.25;;;23.63;70.10
